LICJ/PMO METAR and TAF weather

Enter ICAO airport designator
Station Type Date Time Source
LICJ METAR 2019/02/16 17:20 UTC NOAA

LICJ 161720Z 04010KT 9999 SCT040 12/05 Q1029


Station Type Date Time Source
LICJ Decoded METAR 2019/02/16 17:20 UTC NOAA

Palermo / Punta Raisi, Italy (LICJ) 38-11N 013-06E 21M
Feb 16, 2019 - 12:20 PM EST / 2019.02.16 1720 UTC
Wind: from the NE (040 degrees) at 12 MPH (10 KT):0
Visibility: greater than 7 mile(s):0
Sky conditions: partly cloudy
Temperature: 53 F (12 C)
Dew Point: 41 F (5 C)
Relative Humidity: 62%
Pressure (altimeter): 30.39 in. Hg (1029 hPa)
ob: LICJ 161720Z 04010KT 9999 SCT040 12/05 Q1029
cycle: 17

Station Type Date Time Source
LICJ TAF 2019/02/16 18:22 UTC NOAA

TAF LICJ 161700Z 1618/1718 05014KT 9999 SCT030
BECMG 1619/1621 VRB05KT
BECMG 1708/1710 03010KT


Example: see airport list